createdAt,value
2018-11-27T00:00:54.661Z,29.97
2018-11-27T00:03:43.811Z,38.57
2018-11-27T00:06:24.789Z,32.77
2018-11-27T00:09:01.256Z,37.63
2018-11-27T00:11:40.902Z,38.10
2018-11-27T00:14:17.883Z,36.73
2018-11-27T00:16:57.663Z,33.80
2018-11-27T00:19:36.263Z,37.33
2018-11-27T00:22:10.044Z,35.23
2018-11-27T00:24:41.149Z,38.03
2018-11-27T00:27:15.388Z,32.30
2018-11-27T00:29:47.488Z,33.13
2018-11-27T00:32:28.686Z,34.93
2018-11-27T00:35:07.277Z,34.87
2018-11-27T00:37:48.544Z,37.30
2018-11-27T00:40:27.170Z,38.53
2018-11-27T00:43:06.407Z,34.27
2018-11-27T00:45:43.043Z,34.67
2018-11-27T00:48:21.772Z,35.87
2018-11-27T00:50:57.076Z,35.10
2018-11-27T00:53:38.620Z,36.07
2018-11-27T00:56:20.207Z,38.37
2018-11-27T00:59:11.825Z,37.97
2018-11-27T01:01:57.718Z,39.97
2018-11-27T01:04:45.552Z,35.47
2018-11-27T01:07:16.409Z,38.40
2018-11-27T01:10:04.900Z,38.10
2018-11-27T01:12:34.648Z,38.20
2018-11-27T01:15:06.220Z,35.67
2018-11-27T01:17:38.364Z,34.83
2018-11-27T01:20:15.553Z,37.00
2018-11-27T01:22:45.531Z,39.63
2018-11-27T01:25:16.192Z,36.13
2018-11-27T01:27:45.937Z,37.67
2018-11-27T01:30:18.568Z,36.50
2018-11-27T01:32:49.854Z,39.03
2018-11-27T01:35:26.345Z,36.80
2018-11-27T01:37:56.962Z,33.17
2018-11-27T01:40:31.874Z,35.90
2018-11-27T01:43:22.610Z,34.20
2018-11-27T01:45:54.628Z,36.30
2018-11-27T01:48:25.055Z,34.83
2018-11-27T01:50:55.079Z,36.13
2018-11-27T01:53:25.224Z,40.80
2018-11-27T01:55:55.793Z,34.63
2018-11-27T01:58:27.014Z,33.97
2018-11-27T02:00:57.751Z,37.30
2018-11-27T02:03:31.823Z,36.73
2018-11-27T02:06:07.986Z,35.07
2018-11-27T02:08:44.866Z,39.37
2018-11-27T02:11:16.827Z,38.87
2018-11-27T02:13:48.516Z,37.00
2018-11-27T02:16:18.905Z,35.43
2018-11-27T02:18:48.928Z,35.10
2018-11-27T02:21:20.176Z,34.57
2018-11-27T02:23:49.949Z,34.17
2018-11-27T02:26:20.141Z,38.20
2018-11-27T02:28:49.785Z,38.73
2018-11-27T02:31:21.042Z,33.63
2018-11-27T02:33:56.409Z,37.97
2018-11-27T02:36:27.183Z,38.93
2018-11-27T02:38:57.427Z,36.50
2018-11-27T02:41:28.031Z,34.67
2018-11-27T02:43:58.460Z,36.33
2018-11-27T02:46:28.271Z,40.77
2018-11-27T02:48:57.739Z,40.47
2018-11-27T02:51:29.939Z,38.20
2018-11-27T02:53:59.814Z,39.00
2018-11-27T02:56:29.954Z,40.33
2018-11-27T02:59:00.715Z,41.07
2018-11-27T03:01:35.468Z,38.70
2018-11-27T03:04:07.190Z,37.50
2018-11-27T03:06:37.601Z,42.70
2018-11-27T03:09:11.125Z,34.97
2018-11-27T03:11:40.726Z,38.50
2018-11-27T03:14:10.433Z,38.07
2018-11-27T03:16:42.793Z,40.27
2018-11-27T03:19:12.732Z,36.53
2018-11-27T03:21:43.240Z,37.43
2018-11-27T03:24:13.575Z,36.00
2018-11-27T03:26:44.662Z,33.97
2018-11-27T03:29:17.084Z,37.10
2018-11-27T03:31:48.273Z,34.53
2018-11-27T03:34:19.740Z,34.63
2018-11-27T03:36:51.844Z,37.83
2018-11-27T03:39:22.262Z,34.30
2018-11-27T03:41:59.961Z,36.93
2018-11-27T03:44:30.667Z,37.27
2018-11-27T03:47:00.828Z,38.77
2018-11-27T03:49:30.947Z,35.83
2018-11-27T03:52:01.454Z,36.17
2018-11-27T03:54:31.996Z,34.40
2018-11-27T03:57:02.535Z,33.63
2018-11-27T03:59:32.396Z,41.13
2018-11-27T04:02:02.295Z,40.43
2018-11-27T04:04:31.995Z,36.37
2018-11-27T04:07:04.987Z,38.97
2018-11-27T04:09:34.731Z,36.43
2018-11-27T04:12:04.717Z,38.77
2018-11-27T04:14:35.589Z,38.53
2018-11-27T04:17:12.974Z,35.73
2018-11-27T04:19:52.486Z,34.33
2018-11-27T04:22:28.951Z,39.53
2018-11-27T04:24:59.813Z,36.50
2018-11-27T04:27:31.346Z,36.80
2018-11-27T04:30:03.615Z,37.07
2018-11-27T04:32:36.821Z,41.63
2018-11-27T04:35:11.908Z,31.80
2018-11-27T04:37:41.811Z,39.83
2018-11-27T04:40:17.596Z,37.77
2018-11-27T04:42:47.581Z,39.10
2018-11-27T04:45:21.284Z,41.43
2018-11-27T04:47:51.861Z,38.60
2018-11-27T04:50:21.633Z,39.67
2018-11-27T04:52:51.791Z,36.93
2018-11-27T04:55:22.604Z,39.20
2018-11-27T04:57:55.820Z,41.97
2018-11-27T05:00:27.898Z,45.40
2018-11-27T05:02:57.878Z,40.73
2018-11-27T05:05:28.264Z,44.80
2018-11-27T05:07:58.340Z,41.63
2018-11-27T05:10:28.110Z,46.10
2018-11-27T05:12:58.458Z,43.00
2018-11-27T05:15:28.250Z,42.47
2018-11-27T05:17:59.834Z,42.23
2018-11-27T05:20:30.260Z,40.43
2018-11-27T05:23:00.008Z,39.77
2018-11-27T05:25:30.822Z,42.90
2018-11-27T05:28:01.962Z,43.07
2018-11-27T05:30:31.762Z,44.97
2018-11-27T05:33:03.509Z,45.17
2018-11-27T05:35:35.045Z,42.50
2018-11-27T05:38:05.252Z,45.00
2018-11-27T05:40:43.637Z,38.37
2018-11-27T05:43:26.548Z,40.60
2018-11-27T05:45:59.923Z,41.30
2018-11-27T05:48:47.618Z,40.33
2018-11-27T05:51:28.767Z,39.90
2018-11-27T05:53:59.817Z,41.37
2018-11-27T05:56:40.178Z,42.47
2018-11-27T05:59:16.415Z,38.50
2018-11-27T06:01:57.881Z,41.70
2018-11-27T06:07:10.602Z,38.23
2018-11-27T06:09:46.653Z,40.03
2018-11-27T06:12:20.916Z,39.87
2018-11-27T06:14:59.237Z,39.53
2018-11-27T06:17:32.101Z,38.27
2018-11-27T06:20:24.462Z,40.63
2018-11-27T06:23:00.461Z,41.60
2018-11-27T06:25:34.809Z,39.70
2018-11-27T06:28:13.584Z,41.90
2018-11-27T06:30:57.088Z,41.10
2018-11-27T06:33:26.947Z,41.13
2018-11-27T06:36:00.150Z,43.00
2018-11-27T06:38:39.124Z,41.77
2018-11-27T06:41:22.373Z,47.33
2018-11-27T06:44:02.059Z,44.90
2018-11-27T06:46:42.741Z,43.00
2018-11-27T06:49:17.682Z,44.80
2018-11-27T06:51:53.004Z,42.93
2018-11-27T06:54:45.153Z,44.53
2018-11-27T06:57:16.813Z,43.17
2018-11-27T06:59:47.189Z,42.77
2018-11-27T07:05:16.414Z,41.37
2018-11-27T07:07:47.678Z,43.13
2018-11-27T07:10:22.864Z,41.43
2018-11-27T07:12:57.497Z,39.57
2018-11-27T07:15:28.304Z,43.23
2018-11-27T07:17:58.552Z,44.87
2018-11-27T07:20:28.307Z,43.13
2018-11-27T07:22:59.371Z,45.00
2018-11-27T07:25:29.168Z,41.20
2018-11-27T07:27:59.162Z,44.83
2018-11-27T07:30:28.944Z,42.43
2018-11-27T07:33:09.260Z,47.00
2018-11-27T07:35:39.044Z,43.30
2018-11-27T07:38:10.666Z,42.13
2018-11-27T07:40:40.779Z,45.77
2018-11-27T07:43:14.735Z,40.10
2018-11-27T07:45:44.375Z,45.43
2018-11-27T07:48:14.826Z,47.00
2018-11-27T07:50:45.230Z,49.63
2018-11-27T07:53:15.203Z,47.17
2018-11-27T07:55:48.747Z,48.10
2018-11-27T07:58:24.822Z,46.97
2018-11-27T08:00:59.944Z,44.63
2018-11-27T08:11:15.553Z,49.23
2018-11-27T08:13:52.245Z,46.80
2018-11-27T08:16:28.719Z,44.60
2018-11-27T08:19:02.219Z,48.47
2018-11-27T08:21:41.797Z,42.10
2018-11-27T08:24:28.884Z,43.27
2018-11-27T08:27:00.592Z,47.00
2018-11-27T08:29:32.472Z,39.53
2018-11-27T08:32:04.740Z,43.67
2018-11-27T08:34:48.849Z,38.73
2018-11-27T08:37:36.693Z,40.40
2018-11-27T08:40:21.098Z,42.53
2018-11-27T08:43:03.568Z,41.43
2018-11-27T08:45:49.519Z,37.77
2018-11-27T08:48:35.108Z,37.67
2018-11-27T08:51:13.081Z,37.10
2018-11-27T08:53:49.981Z,40.33
2018-11-27T08:56:36.178Z,39.27
2018-11-27T08:59:07.880Z,36.47
2018-11-27T09:01:39.068Z,35.13
2018-11-27T09:04:12.118Z,39.20
2018-11-27T09:06:43.122Z,39.47
2018-11-27T09:09:17.102Z,37.33
2018-11-27T09:11:47.383Z,34.23
2018-11-27T09:14:20.424Z,34.20
2018-11-27T09:16:52.747Z,37.77
2018-11-27T09:19:33.264Z,31.83
2018-11-27T09:22:03.458Z,31.20
2018-11-27T09:24:34.403Z,37.93
2018-11-27T09:27:04.334Z,33.60
2018-11-27T09:29:35.562Z,31.93
2018-11-27T09:32:05.448Z,33.60
2018-11-27T09:34:39.273Z,34.63
2018-11-27T09:37:12.498Z,36.13
2018-11-27T09:39:44.331Z,33.67
2018-11-27T09:42:33.300Z,30.43
2018-11-27T09:45:18.842Z,32.20
2018-11-27T09:48:00.236Z,31.60
2018-11-27T09:50:44.321Z,34.00
2018-11-27T09:53:24.190Z,32.23
2018-11-27T09:55:58.617Z,36.87
2018-11-27T09:58:41.402Z,36.30
2018-11-27T10:01:46.115Z,36.73
2018-11-27T10:04:31.992Z,35.23
2018-11-27T10:07:17.997Z,37.27
2018-11-27T10:10:04.062Z,34.57
2018-11-27T10:12:53.305Z,36.27
2018-11-27T10:15:47.751Z,41.70
2018-11-27T10:18:19.603Z,41.27
2018-11-27T10:20:52.975Z,36.30
2018-11-27T10:23:28.543Z,35.57
2018-11-27T10:25:59.360Z,40.40
2018-11-27T10:28:31.937Z,36.70
2018-11-27T10:30:59.048Z,37.97
2018-11-27T10:33:40.346Z,38.27
2018-11-27T10:36:22.899Z,38.53
2018-11-27T10:39:00.930Z,35.90
2018-11-27T10:41:32.530Z,37.53
2018-11-27T10:44:04.223Z,35.63
2018-11-27T10:46:34.897Z,35.23
2018-11-27T10:49:25.865Z,33.30
2018-11-27T10:52:16.759Z,39.70
2018-11-27T10:55:08.243Z,37.07
2018-11-27T10:57:39.722Z,33.23
2018-11-27T11:00:27.230Z,37.17
2018-11-27T11:03:07.558Z,39.20
2018-11-27T11:05:45.533Z,35.97
2018-11-27T11:08:33.242Z,35.43
2018-11-27T11:11:05.798Z,34.87
2018-11-27T11:13:41.378Z,38.20
2018-11-27T11:16:15.029Z,33.83
2018-11-27T11:18:54.487Z,36.50
2018-11-27T11:21:26.642Z,40.20
2018-11-27T11:23:56.747Z,37.67
2018-11-27T11:26:29.602Z,39.27
2018-11-27T11:29:29.099Z,39.73
2018-11-27T11:32:09.121Z,37.10
2018-11-27T11:34:40.019Z,38.33
2018-11-27T11:37:11.122Z,43.37
2018-11-27T11:39:45.886Z,40.47
2018-11-27T11:42:30.787Z,39.90
2018-11-27T11:45:02.059Z,41.83
2018-11-27T11:47:32.494Z,39.53
2018-11-27T11:50:04.182Z,43.13
2018-11-27T11:52:35.168Z,42.27
2018-11-27T11:55:04.768Z,62.53
2018-11-27T11:57:37.414Z,40.40
2018-11-27T12:00:20.009Z,46.27
2018-11-27T12:02:55.680Z,39.10
2018-11-27T12:05:25.598Z,44.80
2018-11-27T12:07:57.152Z,40.23
2018-11-27T12:13:16.669Z,44.40
2018-11-27T12:15:57.017Z,42.93
2018-11-27T12:18:27.424Z,42.43
2018-11-27T12:20:59.870Z,49.67
2018-11-27T12:23:30.839Z,44.20
2018-11-27T12:26:02.297Z,42.83
2018-11-27T12:28:33.283Z,41.77
2018-11-27T12:31:03.969Z,43.00
2018-11-27T12:33:34.720Z,42.63
2018-11-27T12:36:04.730Z,44.70
2018-11-27T12:38:35.228Z,41.77
2018-11-27T12:41:10.188Z,42.67
2018-11-27T12:43:36.700Z,43.67
2018-11-27T12:46:07.860Z,44.13
2018-11-27T12:48:38.810Z,41.03
2018-11-27T12:51:10.097Z,43.57
2018-11-27T12:53:39.657Z,39.93
2018-11-27T12:56:11.593Z,42.80
2018-11-27T12:58:43.327Z,46.83
2018-11-27T13:01:13.126Z,44.70
2018-11-27T13:03:43.458Z,43.47
2018-11-27T13:06:13.330Z,42.83
2018-11-27T13:08:43.634Z,40.27
2018-11-27T13:11:13.547Z,45.77
2018-11-27T13:13:45.954Z,39.93
2018-11-27T13:16:18.248Z,44.83
2018-11-27T13:18:52.330Z,39.43
2018-11-27T13:21:22.976Z,41.57
2018-11-27T13:23:53.249Z,38.07
2018-11-27T13:29:36.425Z,41.90
2018-11-27T13:32:13.393Z,44.80
2018-11-27T13:34:46.496Z,39.00
2018-11-27T13:37:13.654Z,42.30
2018-11-27T13:39:44.079Z,40.43
2018-11-27T13:42:15.929Z,40.63
2018-11-27T13:44:50.587Z,43.90
2018-11-27T13:47:21.767Z,44.00
2018-11-27T13:49:51.690Z,42.40
2018-11-27T13:52:22.335Z,41.63
2018-11-27T13:54:54.803Z,40.37
2018-11-27T13:57:27.127Z,42.30
2018-11-27T13:59:59.044Z,42.03
2018-11-27T14:02:31.278Z,61.37
2018-11-27T14:07:45.186Z,43.80
2018-11-27T14:10:27.061Z,41.67
2018-11-27T14:12:57.260Z,41.60
2018-11-27T14:15:31.290Z,40.80
2018-11-27T14:18:10.033Z,37.57
2018-11-27T14:20:46.008Z,43.17
2018-11-27T14:23:21.456Z,40.17
2018-11-27T14:25:53.860Z,43.87
2018-11-27T14:28:23.857Z,45.57
2018-11-27T14:31:08.308Z,45.00
2018-11-27T14:33:47.328Z,41.30
2018-11-27T14:36:33.685Z,42.50
2018-11-27T14:39:10.513Z,41.63
2018-11-27T14:41:44.596Z,44.20
2018-11-27T14:44:30.475Z,44.90
2018-11-27T14:47:02.140Z,40.87
2018-11-27T14:49:39.222Z,44.60
2018-11-27T14:52:22.294Z,43.03
2018-11-27T14:56:25.854Z,40.80
2018-11-27T14:59:07.027Z,48.70
2018-11-27T15:01:57.143Z,49.47
2018-11-27T15:04:47.950Z,51.73
2018-11-27T15:07:27.257Z,42.07
2018-11-27T15:10:03.894Z,44.27
2018-11-27T15:12:59.656Z,44.83
2018-11-27T15:15:37.977Z,43.80
2018-11-27T15:18:17.513Z,46.87
2018-11-27T15:20:48.760Z,46.27
2018-11-27T15:23:43.619Z,43.43
2018-11-27T22:02:03.936Z,91.60
2018-11-27T22:04:33.823Z,92.13
2018-11-27T22:07:04.587Z,103.63
2018-11-27T22:09:35.357Z,100.97
2018-11-27T22:12:08.991Z,90.77
2018-11-27T22:14:41.130Z,94.07
2018-11-27T22:17:13.743Z,79.93
2018-11-27T22:19:48.071Z,87.70
2018-11-27T22:22:20.347Z,96.90
2018-11-27T22:24:52.192Z,81.67
2018-11-27T22:27:23.768Z,90.70
2018-11-27T22:30:04.912Z,84.60
2018-11-27T22:32:37.622Z,87.60
2018-11-27T22:35:13.093Z,73.87
2018-11-27T22:37:43.846Z,83.70
2018-11-27T22:40:24.633Z,76.37
2018-11-27T22:42:58.791Z,80.50
2018-11-27T22:45:40.787Z,84.07
2018-11-27T22:48:13.197Z,82.13
2018-11-27T22:50:46.767Z,83.60
2018-11-27T22:53:19.913Z,80.13
2018-11-27T22:55:51.924Z,75.00
2018-11-27T22:58:24.157Z,76.43
2018-11-27T23:00:54.068Z,77.60
2018-11-27T23:03:26.564Z,76.27
2018-11-27T23:05:57.622Z,72.97
2018-11-27T23:08:28.352Z,74.87
2018-11-27T23:10:58.325Z,69.53
2018-11-27T23:13:31.175Z,72.17
2018-11-27T23:16:01.132Z,72.53
2018-11-27T23:18:33.891Z,70.57
2018-11-27T23:21:05.830Z,73.53
2018-11-27T23:23:36.712Z,71.30
2018-11-27T23:26:10.120Z,64.00
2018-11-27T23:28:47.104Z,63.47
2018-11-27T23:31:18.657Z,72.00
2018-11-27T23:33:53.137Z,69.07
2018-11-27T23:36:24.350Z,71.77
2018-11-27T23:38:54.469Z,72.33
2018-11-27T23:41:29.091Z,74.37
2018-11-27T23:44:09.889Z,76.73
2018-11-27T23:46:44.857Z,79.77
2018-11-27T23:49:18.363Z,69.67
2018-11-27T23:51:51.467Z,77.60
2018-11-27T23:54:24.768Z,75.67
2018-11-27T23:56:56.960Z,71.40
2018-11-27T23:59:27.939Z,73.37
